Time;durP1;ratioP1;P1;durP2;ratioP2;P2;SDS_P1;SDS_P2;PMS_P1;PMS_P2;Temp;Humidity;BMP_temperature;BMP_pressure;BME280_temperature;BME280_humidity;BME280_pressure;Samples;Min_cycle;Max_cycle;Signal;HPM_P1;HPM_P2
2024/01/03 00:00:34;;;;;;;4.60;1.48;;;26.70;67.30;;;;;;5032414;28;20396;-78
2024/01/03 00:03:02;;;;;;;5.35;1.15;;;26.70;67.40;;;;;;5032727;28;20029;-82
2024/01/03 00:05:35;;;;;;;4.07;1.10;;;26.70;67.20;;;;;;5039279;28;20044;-78
2024/01/03 00:08:04;;;;;;;3.20;1.05;;;26.80;66.90;;;;;;5030708;28;20104;-78
2024/01/03 00:10:40;;;;;;;6.68;1.20;;;26.80;66.40;;;;;;5042283;28;20036;-86
2024/01/03 00:13:33;;;;;;;5.82;1.23;;;26.80;66.80;;;;;;5037727;28;20430;-78
2024/01/03 00:16:06;;;;;;;4.93;1.55;;;26.80;66.70;;;;;;5032261;28;20041;-79
2024/01/03 00:18:41;;;;;;;4.68;1.10;;;26.80;65.60;;;;;;5041609;28;20089;-83
2024/01/03 00:21:10;;;;;;;3.95;1.13;;;26.90;65.40;;;;;;5048248;28;20032;-81
2024/01/03 00:23:45;;;;;;;4.38;1.20;;;26.90;65.60;;;;;;5031567;28;20355;-88
2024/01/03 00:26:15;;;;;;;3.43;1.00;;;27.00;65.60;;;;;;5044907;28;20033;-89
2024/01/03 00:28:42;;;;;;;3.17;1.00;;;26.90;65.30;;;;;;5055316;28;20210;-88
2024/01/03 00:31:38;;;;;;;5.75;1.20;;;27.00;65.70;;;;;;5053681;28;20036;-81
2024/01/03 00:34:27;;;;;;;4.88;0.98;;;26.90;65.40;;;;;;5021424;28;20065;-77
2024/01/03 00:36:55;;;;;;;4.18;0.98;;;26.90;65.80;;;;;;5035537;28;20040;-79
2024/01/03 00:39:31;;;;;;;3.20;1.00;;;27.00;65.50;;;;;;5042656;28;20111;-82
2024/01/03 00:41:59;;;;;;;4.80;1.30;;;26.90;64.90;;;;;;5049323;28;20480;-80
2024/01/03 00:44:26;;;;;;;5.82;1.40;;;26.90;64.60;;;;;;5054678;28;20486;-80
2024/01/03 00:46:56;;;;;;;8.35;1.40;;;27.00;64.90;;;;;;5038636;28;20109;-77
2024/01/03 00:49:25;;;;;;;3.92;0.90;;;27.10;64.00;;;;;;5034680;28;20423;-80
2024/01/03 00:51:53;;;;;;;3.25;1.05;;;27.10;63.40;;;;;;5039516;28;20025;-77
2024/01/03 00:54:22;;;;;;;4.53;0.90;;;27.10;63.60;;;;;;5038734;28;20514;-85
2024/01/03 00:56:51;;;;;;;5.43;1.10;;;27.20;63.50;;;;;;5035241;28;20026;-76
2024/01/03 00:59:19;;;;;;;4.70;0.90;;;27.20;63.90;;;;;;5035204;28;20048;-77
2024/01/03 01:01:47;;;;;;;4.88;1.30;;;27.20;63.60;;;;;;5050049;28;20036;-82
2024/01/03 01:04:18;;;;;;;2.67;0.80;;;27.10;62.90;;;;;;5044075;28;20060;-85
2024/01/03 01:06:45;;;;;;;4.63;1.02;;;27.20;62.60;;;;;;5035097;28;20021;-78
2024/01/03 01:09:13;;;;;;;3.30;0.95;;;27.20;62.60;;;;;;5048979;28;20028;-78
2024/01/03 01:11:40;;;;;;;3.53;1.05;;;27.20;61.70;;;;;;5038303;28;20060;-80
2024/01/03 01:14:07;;;;;;;7.38;1.30;;;27.20;62.30;;;;;;5034533;28;20104;-81
2024/01/03 01:16:35;;;;;;;6.38;1.30;;;27.30;61.80;;;;;;5037723;28;20476;-78
2024/01/03 01:19:05;;;;;;;3.30;0.93;;;27.20;61.10;;;;;;5034780;28;20033;-78
2024/01/03 01:21:32;;;;;;;4.10;0.90;;;27.20;61.30;;;;;;5042428;28;20111;-78
2024/01/03 01:23:59;;;;;;;3.90;0.93;;;27.30;61.80;;;;;;5041822;28;20037;-87
2024/01/03 01:26:27;;;;;;;3.95;1.20;;;27.30;61.70;;;;;;5028376;28;20025;-79
2024/01/03 01:28:54;;;;;;;4.63;1.27;;;27.30;61.90;;;;;;5027527;28;20760;-77
2024/01/03 01:31:21;;;;;;;6.63;1.42;;;27.30;61.70;;;;;;5032712;28;20021;-79
2024/01/03 01:33:49;;;;;;;5.75;1.20;;;27.40;62.30;;;;;;5023110;28;20044;-76
2024/01/03 01:36:16;;;;;;;2.97;1.00;;;27.40;62.00;;;;;;5032805;28;20024;-77
2024/01/03 01:38:44;;;;;;;6.90;1.30;;;27.40;62.30;;;;;;5044246;28;20029;-84
2024/01/03 01:41:11;;;;;;;6.88;1.20;;;27.40;62.10;;;;;;5039030;28;20033;-82
2024/01/03 01:43:39;;;;;;;3.75;1.30;;;27.50;62.00;;;;;;5046288;28;20091;-84
2024/01/03 01:46:07;;;;;;;5.47;1.58;;;27.50;61.90;;;;;;5028219;28;20028;-75
2024/01/03 01:48:35;;;;;;;5.72;1.30;;;27.50;61.90;;;;;;5045401;28;20034;-77
2024/01/03 01:51:03;;;;;;;4.88;1.38;;;27.50;61.90;;;;;;5047448;28;20022;-81
2024/01/03 01:53:30;;;;;;;5.47;1.13;;;27.50;62.10;;;;;;5055772;28;20103;-74
2024/01/03 01:55:59;;;;;;;2.80;0.90;;;27.50;61.80;;;;;;5038552;28;20022;-76
2024/01/03 01:58:32;;;;;;;8.05;1.45;;;27.40;62.00;;;;;;5030475;28;20254;-73
2024/01/03 02:01:05;;;;;;;5.75;1.67;;;27.50;62.60;;;;;;5035795;28;20401;-76
2024/01/03 02:03:34;;;;;;;4.82;1.13;;;27.50;63.20;;;;;;5039793;28;20052;-74
2024/01/03 02:06:06;;;;;;;4.32;1.10;;;27.50;63.70;;;;;;5036366;28;20037;-77
2024/01/03 02:08:37;;;;;;;5.78;1.20;;;27.60;63.00;;;;;;5040987;28;20055;-77
2024/01/03 02:11:05;;;;;;;4.13;1.27;;;27.60;63.10;;;;;;5047537;28;20062;-75
2024/01/03 02:13:32;;;;;;;3.97;1.10;;;27.70;63.60;;;;;;5033261;28;20028;-76
2024/01/03 02:16:02;;;;;;;6.38;1.58;;;27.70;63.40;;;;;;5045796;28;20029;-75
2024/01/03 02:18:32;;;;;;;8.23;1.70;;;27.80;63.30;;;;;;5037454;28;20029;-76
2024/01/03 02:21:02;;;;;;;6.25;1.40;;;27.80;62.80;;;;;;5039895;28;20072;-76
2024/01/03 02:23:31;;;;;;;5.68;1.48;;;27.80;62.40;;;;;;5027304;28;20018;-76
2024/01/03 02:25:58;;;;;;;6.10;1.88;;;27.80;62.50;;;;;;5038860;28;20029;-79
2024/01/03 02:28:29;;;;;;;5.07;1.00;;;27.80;62.40;;;;;;5036915;28;20037;-76
2024/01/03 02:30:58;;;;;;;2.70;0.90;;;27.80;62.50;;;;;;5039027;28;20017;-77
2024/01/03 02:33:26;;;;;;;5.30;1.00;;;27.70;62.80;;;;;;5041057;28;20052;-78
2024/01/03 02:35:54;;;;;;;4.82;1.20;;;27.80;62.10;;;;;;5056028;28;20047;-77
2024/01/03 02:38:23;;;;;;;4.53;1.20;;;27.80;62.30;;;;;;5019787;28;20103;-76
2024/01/03 02:40:51;;;;;;;6.30;1.20;;;27.70;62.30;;;;;;5027299;28;20029;-77
2024/01/03 02:43:20;;;;;;;4.57;1.45;;;27.80;62.40;;;;;;5029460;28;20029;-78
2024/01/03 02:45:52;;;;;;;5.22;0.93;;;27.80;62.20;;;;;;5041023;28;20128;-88
2024/01/03 02:48:20;;;;;;;5.90;1.23;;;27.80;62.50;;;;;;5033238;28;20033;-80
2024/01/03 02:50:51;;;;;;;5.15;1.23;;;27.80;62.50;;;;;;5033181;28;20036;-77
2024/01/03 02:53:24;;;;;;;4.90;1.10;;;27.90;62.50;;;;;;5033397;28;20042;-79
2024/01/03 02:55:52;;;;;;;5.72;1.10;;;27.90;62.60;;;;;;5030474;28;20473;-76
2024/01/03 02:58:26;;;;;;;5.60;1.20;;;27.80;62.40;;;;;;5033597;28;20056;-84
2024/01/03 03:00:54;;;;;;;5.28;1.20;;;27.80;63.10;;;;;;5012963;28;20493;-81
2024/01/03 03:03:22;;;;;;;6.05;1.50;;;27.80;63.00;;;;;;5033325;28;20045;-78
2024/01/03 03:05:49;;;;;;;4.93;1.38;;;27.80;63.10;;;;;;5034675;28;20546;-80
2024/01/03 03:08:17;;;;;;;5.88;1.20;;;27.90;63.30;;;;;;5029181;28;20075;-81
2024/01/03 03:10:45;;;;;;;7.45;1.70;;;27.90;62.40;;;;;;5029291;28;20038;-78
2024/01/03 03:13:12;;;;;;;9.02;1.65;;;27.90;63.00;;;;;;5037417;28;20013;-81
2024/01/03 03:15:46;;;;;;;7.10;1.30;;;27.90;63.40;;;;;;5040808;28;20022;-79
2024/01/03 03:18:15;;;;;;;4.50;1.30;;;28.00;63.40;;;;;;5037105;28;20120;-79
2024/01/03 03:20:44;;;;;;;9.10;1.65;;;27.90;63.50;;;;;;5034427;28;20037;-76
2024/01/03 03:23:12;;;;;;;8.98;1.27;;;27.80;63.80;;;;;;5044965;28;20036;-77
2024/01/03 03:25:39;;;;;;;10.40;2.53;;;27.80;63.90;;;;;;5027693;28;20041;-77
2024/01/03 03:28:08;;;;;;;5.90;1.60;;;27.80;64.10;;;;;;5024815;28;20029;-78
2024/01/03 03:30:39;;;;;;;6.13;1.30;;;27.80;64.20;;;;;;5030995;28;20096;-84
2024/01/03 03:33:08;;;;;;;7.22;1.45;;;27.80;63.90;;;;;;5028887;28;20033;-81
2024/01/03 03:35:36;;;;;;;7.22;1.60;;;27.80;63.30;;;;;;5032981;28;20024;-77
2024/01/03 03:38:04;;;;;;;5.65;1.33;;;27.80;63.50;;;;;;5021987;28;20088;-80
2024/01/03 03:40:33;;;;;;;6.07;1.67;;;27.70;63.70;;;;;;5036076;28;20033;-79
2024/01/03 03:43:00;;;;;;;6.63;1.45;;;27.70;64.20;;;;;;5027591;28;20052;-78
2024/01/03 03:45:28;;;;;;;6.38;1.30;;;27.60;64.10;;;;;;5024765;28;20043;-78
2024/01/03 03:47:57;;;;;;;5.47;1.30;;;27.70;64.40;;;;;;5046395;28;20026;-77
2024/01/03 03:50:26;;;;;;;6.43;1.63;;;27.70;64.50;;;;;;5026605;28;20099;-83
2024/01/03 03:52:58;;;;;;;8.15;1.35;;;27.70;64.40;;;;;;5039918;28;20467;-77
2024/01/03 03:55:28;;;;;;;7.03;1.25;;;27.70;64.70;;;;;;5021156;28;20064;-79
2024/01/03 03:57:59;;;;;;;4.13;1.20;;;27.70;64.60;;;;;;5033880;28;20037;-79
2024/01/03 04:00:30;;;;;;;3.72;0.98;;;27.60;64.90;;;;;;5019519;28;20097;-82
2024/01/03 04:02:57;;;;;;;6.00;1.40;;;27.50;65.20;;;;;;5026626;28;20045;-78
2024/01/03 04:05:25;;;;;;;7.40;1.27;;;27.40;65.10;;;;;;5030337;28;20489;-78
2024/01/03 04:07:53;;;;;;;9.10;1.80;;;27.30;65.30;;;;;;5028531;28;20033;-87
2024/01/03 04:10:21;;;;;;;7.38;1.45;;;27.30;65.80;;;;;;5030535;28;20091;-82
2024/01/03 04:12:52;;;;;;;9.85;1.42;;;27.30;66.00;;;;;;5041249;28;20412;-87
2024/01/03 04:15:20;;;;;;;6.05;1.40;;;27.20;66.20;;;;;;5052048;28;20108;-77
2024/01/03 04:17:48;;;;;;;8.02;1.40;;;27.20;66.50;;;;;;5045218;28;20497;-78
2024/01/03 04:20:16;;;;;;;5.57;1.70;;;27.10;66.70;;;;;;5044891;28;20480;-78
2024/01/03 04:22:45;;;;;;;10.65;1.77;;;27.20;67.00;;;;;;5033249;28;20052;-78
2024/01/03 04:25:13;;;;;;;5.28;1.20;;;27.10;66.90;;;;;;5037579;28;20029;-76
2024/01/03 04:27:41;;;;;;;8.60;1.52;;;27.00;67.30;;;;;;5043886;28;20049;-77
2024/01/03 04:30:08;;;;;;;6.95;1.45;;;27.00;67.60;;;;;;5035008;28;20034;-78
2024/01/03 04:32:36;;;;;;;6.63;1.08;;;26.90;67.80;;;;;;5042149;28;20033;-77
2024/01/03 04:35:05;;;;;;;6.20;1.25;;;26.90;67.60;;;;;;5039767;28;20516;-76
2024/01/03 04:37:33;;;;;;;10.65;1.70;;;26.80;67.90;;;;;;5048680;28;20472;-78
2024/01/03 04:40:00;;;;;;;7.57;1.40;;;26.80;67.90;;;;;;5034676;28;20369;-77
2024/01/03 04:42:28;;;;;;;6.63;1.55;;;26.70;68.20;;;;;;5031323;28;20053;-81
2024/01/03 04:44:55;;;;;;;8.05;1.92;;;26.70;68.30;;;;;;5033889;28;20038;-81
2024/01/03 04:47:23;;;;;;;7.95;1.48;;;26.70;68.70;;;;;;5044526;28;20022;-78
2024/01/03 04:49:51;;;;;;;11.57;1.50;;;26.60;68.60;;;;;;5036294;28;20025;-84
2024/01/03 04:52:18;;;;;;;11.35;1.80;;;26.60;68.70;;;;;;5043626;28;20037;-78
2024/01/03 04:54:46;;;;;;;4.07;1.13;;;26.50;68.80;;;;;;5049239;28;20029;-86
2024/01/03 04:57:13;;;;;;;8.45;1.52;;;26.50;69.00;;;;;;5035999;28;20065;-82
2024/01/03 04:59:41;;;;;;;7.45;1.35;;;26.50;69.00;;;;;;5033372;28;20030;-81
2024/01/03 05:02:08;;;;;;;5.80;1.50;;;26.40;69.10;;;;;;5033867;28;20146;-83
2024/01/03 05:04:35;;;;;;;9.80;1.60;;;26.30;69.10;;;;;;5041568;28;20057;-78
2024/01/03 05:07:03;;;;;;;4.38;1.15;;;26.30;69.30;;;;;;5045262;28;20029;-78
2024/01/03 05:09:34;;;;;;;10.02;1.70;;;26.30;69.50;;;;;;5036875;28;20029;-78
2024/01/03 05:12:02;;;;;;;7.78;1.30;;;26.30;69.30;;;;;;5031801;28;20029;-78
2024/01/03 05:14:31;;;;;;;7.22;1.40;;;26.30;69.20;;;;;;5039284;28;20040;-77
2024/01/03 05:16:59;;;;;;;6.22;1.52;;;26.30;69.50;;;;;;5047734;28;20036;-82
2024/01/03 05:19:26;;;;;;;7.57;1.50;;;26.30;69.40;;;;;;5025329;28;20034;-86
2024/01/03 05:21:54;;;;;;;6.55;1.45;;;26.30;69.30;;;;;;5020792;28;20036;-84
2024/01/03 05:24:21;;;;;;;8.95;1.73;;;26.30;69.40;;;;;;5029433;28;20128;-86
2024/01/03 05:26:49;;;;;;;6.75;1.50;;;26.30;69.50;;;;;;5036581;28;20033;-85
2024/01/03 05:29:16;;;;;;;10.43;1.92;;;26.30;69.60;;;;;;5046624;28;20028;-77
2024/01/03 05:31:44;;;;;;;9.23;1.50;;;26.30;69.70;;;;;;5044700;28;20029;-83
2024/01/03 05:34:12;;;;;;;6.50;1.55;;;26.30;69.80;;;;;;5035424;28;20056;-80
2024/01/03 05:36:40;;;;;;;11.13;2.00;;;26.30;70.00;;;;;;5047818;28;20385;-76
2024/01/03 05:39:08;;;;;;;8.60;1.52;;;26.30;69.90;;;;;;5043180;28;20026;-78
2024/01/03 05:41:35;;;;;;;8.80;1.40;;;26.30;70.00;;;;;;5033302;28;20022;-77
2024/01/03 05:44:03;;;;;;;8.45;1.92;;;26.30;70.00;;;;;;5045016;28;20128;-86
2024/01/03 05:46:31;;;;;;;6.32;1.45;;;26.30;69.80;;;;;;5053506;28;20045;-77
2024/01/03 05:48:59;;;;;;;8.32;1.30;;;26.30;70.00;;;;;;5053413;28;20057;-87
2024/01/03 05:51:26;;;;;;;7.85;1.35;;;26.30;70.10;;;;;;5037590;28;20024;-76
2024/01/03 05:53:53;;;;;;;7.55;1.50;;;26.30;70.20;;;;;;5039042;28;20045;-76
2024/01/03 05:56:21;;;;;;;4.97;1.40;;;26.30;70.20;;;;;;5032972;28;20022;-79
2024/01/03 05:58:48;;;;;;;8.38;1.42;;;26.30;70.20;;;;;;5037219;28;20104;-77
2024/01/03 06:01:16;;;;;;;5.50;1.15;;;26.30;70.20;;;;;;5050524;28;20542;-86
2024/01/03 06:03:44;;;;;;;11.20;2.15;;;26.30;70.40;;;;;;5052250;28;20049;-82
2024/01/03 06:06:11;;;;;;;7.75;1.60;;;26.30;70.50;;;;;;5043480;28;20037;-86
2024/01/03 06:08:39;;;;;;;9.13;1.73;;;26.30;70.70;;;;;;5042880;28;20029;-88
2024/01/03 06:11:12;;;;;;;9.63;1.90;;;26.30;70.80;;;;;;5042632;28;20092;-82
2024/01/03 06:13:40;;;;;;;7.03;1.40;;;26.30;71.00;;;;;;5050535;28;20034;-85
2024/01/03 06:16:10;;;;;;;10.43;1.50;;;26.40;70.60;;;;;;5045894;28;20027;-85
2024/01/03 06:18:37;;;;;;;6.60;1.55;;;26.50;70.30;;;;;;5033467;28;20033;-83
2024/01/03 06:21:11;;;;;;;8.65;2.25;;;26.50;70.20;;;;;;5035931;28;20079;-88
2024/01/03 06:23:40;;;;;;;8.20;1.80;;;26.40;70.10;;;;;;5031233;28;20067;-78
2024/01/03 06:26:08;;;;;;;5.03;1.40;;;26.40;69.90;;;;;;5036786;28;20028;-87
2024/01/03 06:28:36;;;;;;;8.00;1.60;;;26.40;70.20;;;;;;5038238;28;20041;-86
2024/01/03 06:31:03;;;;;;;9.45;1.90;;;26.40;70.40;;;;;;5050582;28;20029;-85
2024/01/03 06:33:32;;;;;;;13.15;1.90;;;26.40;70.50;;;;;;5050257;28;20107;-85
2024/01/03 06:36:00;;;;;;;6.30;1.55;;;26.40;70.50;;;;;;5046437;28;20033;-84
2024/01/03 06:38:28;;;;;;;9.13;1.50;;;26.30;70.60;;;;;;5055159;28;20021;-81
2024/01/03 06:40:56;;;;;;;7.88;1.83;;;26.30;70.70;;;;;;5040602;28;20100;-83
2024/01/03 06:43:23;;;;;;;11.50;1.92;;;26.30;70.50;;;;;;5036745;28;20017;-78
2024/01/03 06:45:50;;;;;;;7.22;1.92;;;26.30;70.30;;;;;;5048824;28;20041;-84
2024/01/03 06:48:18;;;;;;;8.23;1.80;;;26.30;70.20;;;;;;5036417;28;20025;-79
2024/01/03 06:50:46;;;;;;;8.95;1.60;;;26.30;70.40;;;;;;5038821;28;20029;-81
2024/01/03 06:53:15;;;;;;;8.80;2.67;;;26.30;70.50;;;;;;5044574;28;20071;-83
2024/01/03 06:55:42;;;;;;;8.10;2.25;;;26.20;70.40;;;;;;5036106;28;20025;-79
2024/01/03 06:58:09;;;;;;;7.05;2.00;;;26.30;70.20;;;;;;5039501;28;20032;-85
2024/01/03 07:00:37;;;;;;;9.82;1.67;;;26.30;70.20;;;;;;5053962;28;20021;-86
2024/01/03 07:03:06;;;;;;;12.48;2.00;;;26.20;70.50;;;;;;5035283;28;20136;-79
2024/01/03 07:05:33;;;;;;;7.95;2.22;;;26.20;70.90;;;;;;5032848;28;20037;-85
2024/01/03 07:08:02;;;;;;;9.23;2.03;;;26.20;71.00;;;;;;5041478;28;20021;-84
2024/01/03 07:10:31;;;;;;;8.10;1.88;;;26.30;70.30;;;;;;5040487;28;20399;-80
2024/01/03 07:13:02;;;;;;;9.35;1.98;;;26.30;70.30;;;;;;5031647;28;20041;-86
2024/01/03 07:15:29;;;;;;;10.13;2.22;;;26.30;70.40;;;;;;5037822;28;20041;-77
2024/01/03 07:17:59;;;;;;;7.20;1.83;;;26.30;70.00;;;;;;5034136;28;20021;-82
2024/01/03 07:20:26;;;;;;;7.28;1.63;;;26.30;69.80;;;;;;5035185;28;20037;-87
2024/01/03 07:22:54;;;;;;;10.10;2.00;;;26.30;69.90;;;;;;5044757;28;20132;-84
2024/01/03 07:25:22;;;;;;;7.55;1.70;;;26.20;69.90;;;;;;5042564;28;20084;-85
2024/01/03 07:27:49;;;;;;;7.97;2.00;;;26.20;70.20;;;;;;5042359;28;20040;-84
2024/01/03 07:30:18;;;;;;;8.98;1.73;;;26.20;70.20;;;;;;5029554;28;20053;-84
2024/01/03 07:32:45;;;;;;;12.10;2.20;;;26.20;70.20;;;;;;5031996;28;20069;-78
2024/01/03 07:35:13;;;;;;;8.27;2.00;;;26.30;70.00;;;;;;5034931;28;20072;-86
2024/01/03 07:37:40;;;;;;;10.27;2.47;;;26.20;70.10;;;;;;5034628;28;20022;-82
2024/01/03 07:40:08;;;;;;;8.00;2.00;;;26.20;70.50;;;;;;5035298;28;20024;-82
2024/01/03 07:42:36;;;;;;;6.15;2.13;;;26.20;70.50;;;;;;5033358;28;20407;-83
2024/01/03 07:45:03;;;;;;;10.63;2.42;;;26.10;70.70;;;;;;5048775;28;20033;-84
2024/01/03 07:47:30;;;;;;;9.98;2.40;;;26.10;70.70;;;;;;5028900;28;20025;-81
2024/01/03 07:49:58;;;;;;;10.77;2.47;;;26.20;70.20;;;;;;5029266;28;20025;-84
2024/01/03 07:52:25;;;;;;;5.95;2.00;;;26.10;70.50;;;;;;5038805;28;20021;-87
2024/01/03 07:54:53;;;;;;;10.13;1.77;;;26.00;70.70;;;;;;5039946;28;20119;-84
2024/01/03 07:57:20;;;;;;;9.90;1.90;;;26.00;70.60;;;;;;5033511;28;20357;-78
2024/01/03 07:59:48;;;;;;;6.20;1.90;;;26.00;70.80;;;;;;5034249;28;20450;-84
2024/01/03 08:02:15;;;;;;;8.23;2.17;;;25.90;71.00;;;;;;5033767;28;20052;-80
2024/01/03 08:04:43;;;;;;;8.02;1.75;;;25.90;71.40;;;;;;5034293;28;20033;-81
2024/01/03 08:07:10;;;;;;;9.05;1.77;;;25.90;71.40;;;;;;5030796;28;20041;-84
2024/01/03 08:09:38;;;;;;;11.98;2.40;;;25.90;71.40;;;;;;5030913;28;20022;-85
2024/01/03 08:12:08;;;;;;;13.15;2.65;;;25.90;71.40;;;;;;5031800;28;20136;-81
2024/01/03 08:14:36;;;;;;;8.43;2.35;;;25.90;71.50;;;;;;5042796;28;20105;-83
2024/01/03 08:17:04;;;;;;;8.07;1.80;;;25.90;71.60;;;;;;5035926;28;20059;-79
2024/01/03 08:19:32;;;;;;;8.63;2.55;;;25.90;71.40;;;;;;5031784;28;20432;-84
2024/01/03 08:22:01;;;;;;;5.53;1.70;;;25.90;71.40;;;;;;5034088;28;20424;-86
2024/01/03 08:24:29;;;;;;;8.10;2.10;;;25.90;71.50;;;;;;5031814;28;20072;-83
2024/01/03 08:26:57;;;;;;;10.38;2.28;;;25.90;71.50;;;;;;5039300;28;20445;-79
2024/01/03 08:29:25;;;;;;;9.30;2.42;;;25.90;71.40;;;;;;5034170;28;20033;-79
2024/01/03 08:31:55;;;;;;;6.82;1.90;;;25.90;71.30;;;;;;5046470;28;20021;-85
2024/01/03 08:34:22;;;;;;;9.30;1.92;;;25.80;71.50;;;;;;5041620;28;20037;-82
2024/01/03 08:36:50;;;;;;;7.88;2.00;;;25.80;71.50;;;;;;5040240;28;20029;-83
2024/01/03 08:39:17;;;;;;;5.38;1.90;;;25.80;71.50;;;;;;5033522;28;20079;-84
2024/01/03 08:41:47;;;;;;;9.23;1.90;;;25.80;71.40;;;;;;5034133;28;20034;-77
2024/01/03 08:44:14;;;;;;;10.30;2.10;;;25.80;71.50;;;;;;5032424;28;20360;-78
2024/01/03 08:46:45;;;;;;;8.13;1.98;;;25.80;71.60;;;;;;5039324;28;20032;-80
2024/01/03 08:49:13;;;;;;;10.82;1.98;;;25.70;71.80;;;;;;5053434;28;20071;-84
2024/01/03 08:51:43;;;;;;;6.40;1.85;;;25.70;72.00;;;;;;5032351;28;20036;-78
2024/01/03 08:54:11;;;;;;;5.95;1.67;;;25.70;72.20;;;;;;5044911;28;20084;-84
2024/01/03 08:56:39;;;;;;;8.25;2.05;;;25.70;72.20;;;;;;5038467;28;20070;-83
2024/01/03 08:59:07;;;;;;;11.38;2.40;;;25.60;72.10;;;;;;5044265;28;20037;-88
2024/01/03 09:01:34;;;;;;;7.45;2.00;;;25.70;72.30;;;;;;5036500;28;20045;-78
2024/01/03 09:04:03;;;;;;;10.45;1.90;;;25.70;72.60;;;;;;5034141;28;20156;-84
2024/01/03 09:06:35;;;;;;;5.88;1.95;;;25.60;72.90;;;;;;5033240;28;20036;-83
2024/01/03 09:09:03;;;;;;;8.68;1.90;;;25.50;73.30;;;;;;5047377;28;20021;-82
2024/01/03 09:11:31;;;;;;;11.35;2.28;;;25.60;73.50;;;;;;5030560;28;20041;-79
2024/01/03 09:13:59;;;;;;;7.25;1.77;;;25.60;73.30;;;;;;5032240;28;20036;-77
2024/01/03 09:16:27;;;;;;;10.68;2.25;;;25.70;73.50;;;;;;5036548;28;20488;-81
2024/01/03 09:18:54;;;;;;;10.75;2.20;;;25.60;73.60;;;;;;5032925;28;20030;-80
2024/01/03 09:21:22;;;;;;;9.55;2.38;;;25.50;74.00;;;;;;5038648;28;20033;-78
2024/01/03 09:23:50;;;;;;;10.55;2.65;;;25.50;74.40;;;;;;5031907;28;20036;-78
2024/01/03 09:26:21;;;;;;;12.95;2.08;;;25.50;74.20;;;;;;5033616;28;20036;-88
2024/01/03 09:28:48;;;;;;;7.32;1.80;;;25.40;74.60;;;;;;5049130;28;20033;-82
2024/01/03 09:31:16;;;;;;;8.25;1.92;;;25.40;74.70;;;;;;5042189;28;20476;-78
2024/01/03 09:33:43;;;;;;;11.68;2.40;;;25.40;74.80;;;;;;5028824;28;20376;-77
2024/01/03 09:36:20;;;;;;;13.63;2.55;;;25.40;75.00;;;;;;5031007;28;20041;-79
2024/01/03 09:38:49;;;;;;;11.07;2.40;;;25.30;75.00;;;;;;5035770;28;20031;-86
2024/01/03 09:41:17;;;;;;;12.00;2.30;;;25.30;75.20;;;;;;5042615;28;20033;-85
2024/01/03 09:43:46;;;;;;;5.85;2.00;;;25.30;75.10;;;;;;5031251;28;20038;-77
2024/01/03 09:46:13;;;;;;;11.48;2.35;;;25.30;75.20;;;;;;5035569;28;20037;-85
2024/01/03 09:48:42;;;;;;;8.32;2.25;;;25.30;75.20;;;;;;5029292;28;20438;-81
2024/01/03 09:51:10;;;;;;;11.05;2.30;;;25.30;75.10;;;;;;5032886;28;20083;-83
2024/01/03 09:53:39;;;;;;;8.27;2.30;;;25.30;75.00;;;;;;5035221;28;20416;-77
2024/01/03 09:56:06;;;;;;;10.20;2.17;;;25.30;75.10;;;;;;5034550;28;20518;-81
2024/01/03 09:58:37;;;;;;;8.75;2.08;;;25.30;75.00;;;;;;5048225;28;20101;-85
2024/01/03 10:01:04;;;;;;;11.38;1.70;;;25.30;75.10;;;;;;5051779;28;20048;-85
2024/01/03 10:03:32;;;;;;;9.95;2.22;;;25.30;74.80;;;;;;5032480;28;20049;-84
2024/01/03 10:06:07;;;;;;;10.95;2.80;;;25.30;75.20;;;;;;5029598;28;20500;-86
2024/01/03 10:08:35;;;;;;;10.80;2.35;;;25.30;75.10;;;;;;5033990;28;20021;-82
2024/01/03 10:11:18;;;;;;;11.70;2.10;;;25.20;75.00;;;;;;5031356;28;20428;-78
2024/01/03 10:13:46;;;;;;;11.98;1.92;;;25.20;75.00;;;;;;5042392;28;20014;-85
2024/01/03 10:16:21;;;;;;;11.05;2.25;;;25.30;75.00;;;;;;5030897;28;20030;-78
2024/01/03 10:19:06;;;;;;;;;;;25.20;75.20;;;;;;5032344;28;20101;-84
2024/01/03 10:21:34;;;;;;;8.02;1.80;;;25.20;75.20;;;;;;5030040;28;20008;-84
2024/01/03 10:24:11;;;;;;;11.27;2.47;;;25.20;75.30;;;;;;5030519;28;20032;-78
2024/01/03 10:26:39;;;;;;;8.02;1.70;;;25.10;75.50;;;;;;5030831;28;20488;-79
2024/01/03 10:29:14;;;;;;;8.35;1.67;;;25.10;75.50;;;;;;5041132;28;20026;-85
2024/01/03 10:31:41;;;;;;;;;;;25.10;75.60;;;;;;5030887;28;20029;-80
2024/01/03 10:34:16;;;;;;;9.32;1.73;;;25.00;75.70;;;;;;5027751;28;19962;-78
2024/01/03 10:36:49;;;;;;;7.82;1.90;;;25.10;75.80;;;;;;5018712;28;20040;-83
2024/01/03 10:39:19;;;;;;;8.98;1.80;;;25.00;75.80;;;;;;5032147;28;20030;-77
2024/01/03 10:41:48;;;;;;;8.27;2.38;;;25.00;75.90;;;;;;5041975;28;20503;-77
2024/01/03 10:44:17;;;;;;;12.80;2.65;;;25.00;76.10;;;;;;5033399;28;20036;-76
2024/01/03 10:46:49;;;;;;;11.48;2.45;;;25.00;75.80;;;;;;5021919;28;20435;-77
2024/01/03 10:49:16;;;;;;;9.85;2.30;;;25.00;76.00;;;;;;5034168;28;20124;-77
2024/01/03 10:51:46;;;;;;;7.72;2.95;;;25.10;75.70;;;;;;5044038;28;20021;-77
2024/01/03 10:54:15;;;;;;;9.35;2.22;;;25.10;75.90;;;;;;5046703;28;20644;-79
2024/01/03 10:56:51;;;;;;;11.23;2.50;;;25.10;75.70;;;;;;5032912;28;20471;-77
2024/01/03 10:59:21;;;;;;;14.50;2.25;;;25.10;75.80;;;;;;5034847;28;20079;-77
2024/01/03 11:01:58;;;;;;;6.90;1.88;;;25.10;75.80;;;;;;5043975;28;20033;-77
2024/01/03 11:04:49;;;;;;;8.27;1.58;;;25.10;76.00;;;;;;5042825;28;20084;-79
2024/01/03 11:07:23;;;;;;;8.38;2.05;;;25.00;76.00;;;;;;5028092;28;20101;-77
2024/01/03 11:09:52;;;;;;;7.20;1.42;;;25.00;76.20;;;;;;5040728;28;20036;-84
2024/01/03 11:12:26;;;;;;;6.07;1.67;;;25.00;76.30;;;;;;5036343;28;20030;-76
2024/01/03 11:14:54;;;;;;;8.98;1.83;;;25.00;76.40;;;;;;5029469;28;20109;-81
2024/01/03 11:17:34;;;;;;;7.63;1.80;;;24.90;76.40;;;;;;5043489;28;20025;-77
2024/01/03 11:20:08;;;;;;;6.82;1.77;;;24.90;76.60;;;;;;5029750;28;20595;-80
2024/01/03 11:22:57;;;;;;;9.20;2.05;;;24.90;76.70;;;;;;5031517;28;20026;-81
2024/01/03 11:25:50;;;;;;;10.60;2.10;;;24.90;76.70;;;;;;5018399;28;20041;-76
2024/01/03 11:28:36;;;;;;;8.13;1.73;;;24.90;76.90;;;;;;5028948;28;20033;-77
2024/01/03 11:31:04;;;;;;;9.40;1.85;;;24.90;76.80;;;;;;5036233;28;20060;-77
2024/01/03 11:33:32;;;;;;;4.95;1.52;;;24.90;76.80;;;;;;5024559;28;20037;-81
2024/01/03 11:35:59;;;;;;;7.47;1.85;;;25.00;76.90;;;;;;5033053;28;20029;-78
2024/01/03 11:38:40;;;;;;;11.25;2.22;;;25.00;76.70;;;;;;5034634;28;20045;-77
2024/01/03 11:41:16;;;;;;;6.75;1.85;;;25.00;76.70;;;;;;5043657;28;20025;-78
2024/01/03 11:43:44;;;;;;;7.80;1.75;;;25.00;76.70;;;;;;5026607;28;20128;-78
2024/01/03 11:46:13;;;;;;;8.57;1.88;;;25.00;76.90;;;;;;5034087;28;20492;-76
2024/01/03 11:48:45;;;;;;;9.98;2.35;;;24.90;76.90;;;;;;5034243;28;20491;-78
2024/01/03 11:51:26;;;;;;;7.18;2.05;;;24.90;77.00;;;;;;5038851;28;20022;-78
2024/01/03 11:53:54;;;;;;;9.77;2.45;;;24.90;77.20;;;;;;5042451;28;20025;-76
2024/01/03 11:56:35;;;;;;;8.38;1.55;;;24.90;77.10;;;;;;5037935;28;20101;-77
2024/01/03 11:59:03;;;;;;;5.97;1.60;;;24.90;77.20;;;;;;5036923;28;20013;-79
2024/01/03 12:01:30;;;;;;;13.90;2.50;;;24.90;77.20;;;;;;5038968;28;20032;-78
2024/01/03 12:04:13;;;;;;;11.48;2.00;;;24.90;77.30;;;;;;5037555;28;20397;-81
2024/01/03 12:06:41;;;;;;;8.73;1.83;;;25.00;77.40;;;;;;5034243;28;20038;-77
2024/01/03 12:09:08;;;;;;;8.52;1.98;;;24.90;77.20;;;;;;5031612;28;20021;-78
2024/01/03 12:11:36;;;;;;;7.80;2.05;;;24.90;77.30;;;;;;5044621;28;20530;-81
2024/01/03 12:14:04;;;;;;;14.40;2.17;;;24.90;77.40;;;;;;5051563;28;20036;-86
2024/01/03 12:16:31;;;;;;;9.73;1.70;;;24.90;77.60;;;;;;5052430;28;20044;-80
2024/01/03 12:18:59;;;;;;;13.18;2.05;;;24.90;77.70;;;;;;5044816;28;20369;-78
2024/01/03 12:21:26;;;;;;;8.65;1.88;;;24.80;77.70;;;;;;5037133;28;20040;-80
2024/01/03 12:24:03;;;;;;;11.57;1.90;;;24.90;77.70;;;;;;5047733;28;20032;-78
2024/01/03 12:26:31;;;;;;;9.45;2.00;;;24.90;77.70;;;;;;5041102;28;20030;-78
2024/01/03 12:29:02;;;;;;;8.48;2.00;;;24.90;77.70;;;;;;5033979;28;20076;-81
2024/01/03 12:31:29;;;;;;;11.43;1.67;;;24.80;77.80;;;;;;5041238;28;20033;-78
2024/01/03 12:34:09;;;;;;;7.40;1.60;;;24.80;77.90;;;;;;5044186;28;20029;-79
2024/01/03 12:36:36;;;;;;;8.27;1.55;;;24.80;78.00;;;;;;5046220;28;20038;-78
2024/01/03 12:39:04;;;;;;;12.27;1.98;;;24.80;78.00;;;;;;5033835;28;20105;-82
2024/01/03 12:41:31;;;;;;;13.27;2.42;;;24.80;78.10;;;;;;5048952;28;20088;-79
2024/01/03 12:43:59;;;;;;;15.90;2.20;;;24.80;78.10;;;;;;5049373;28;20368;-85
2024/01/03 12:46:26;;;;;;;9.25;2.08;;;24.80;78.20;;;;;;5034201;28;20025;-78
2024/01/03 12:48:54;;;;;;;7.65;1.90;;;24.80;78.30;;;;;;5040331;28;20050;-78
2024/01/03 12:51:21;;;;;;;9.50;2.05;;;24.80;78.30;;;;;;5032672;28;20037;-79
2024/01/03 12:53:48;;;;;;;10.02;2.15;;;24.80;78.30;;;;;;5048117;28;20025;-78
2024/01/03 12:56:18;;;;;;;6.75;1.85;;;24.80;78.30;;;;;;5041027;28;20124;-83